Aaby, Denmark

10:00 PM CET on January 21, 2017 (GMT +0100)
Aarhus | | Change Station

Elev 0 ft 56.15 °N, 10.17 °E | Updated 3 minutes ago

Overcast
Overcast
41.9 °F
Feels Like 39 °F
N
4.3
Wind Variable Wind from West
Gusts 9.9 mph

Today
High -- | Low -- °F
--% Chance of Precip.
Yesterday
High -- | Low -- °F
Precip. -- in
Pressure 30.42 in
Visibility 5.0 miles
Clouds Overcast 1200 ft
Windchill 39 °F
Dew Point 41 °F
Humidity 98%
Rainfall 0.00 in
Snow Depth Not available.
8:33 AM 4:28 PM
Waning Crescent, 32% visible
METAR EKAH 212050Z AUTO 18002KT 8000NDV OVC012/// 05/05 Q1030
Pressure 30.42 in
Visibility 5.0 miles
Clouds Overcast 1200 ft
Windchill 39 °F
Dew Point 41 °F
Humidity 98%
Rainfall 0.00 in
Snow Depth Not available.
8:33 AM 4:28 PM
Waning Crescent, 32% visible
METAR EKAH 212050Z AUTO 18002KT 8000NDV OVC012/// 05/05 Q1030

Get Your Daily Forecast Email!

Thanks for signing up!

Be on the lookout for a verification email in your inbox.

You'll start receiving the daily forecast at 8 AM.

×

10-Day Weather Forecast

×

Almanac

Astronomy

Jan. 21, 2017 Rise Set
Actual Time
Civil Twilight
Nautical Twilight
Astronomical Twilight
Moon
Length of Visible Light
Length of Day
Tomorrow will be .
, % of the Moon is Illuminated

Today's Extremes

Country Highs Country Lows

Community

WunderPhotos

Upload Photos

1,962,540 photos uploaded!

WunderBlog® & News

Nearby

Air Quality

  Air Quality AQ Index Pollutant
Not available.

Snow Depth

Station Depth Elevation

Earthquake Activity

City Distance Mag. Time & Date
Minimum magnitude displayed is 2.5.

Coastal Water Temperatures

Place Temperature

Stations

Nearby Weather Stations

Station Location Temp. Windchill Dew Point Humidity Wind Precip. Elev Updated Type